Time;durP1;ratioP1;P1;durP2;ratioP2;P2;SDS_P1;SDS_P2;PMS_P1;PMS_P2;Temp;Humidity;BMP_temperature;BMP_pressure;BME280_temperature;BME280_humidity;BME280_pressure;Samples;Min_cycle;Max_cycle;Signal;HPM_P1;HPM_P2
2022/11/26 00:00:17;;;;;;;24.07;14.27;;;;;;;4.71;94.41;95119.75;5035137;28;20296;-85
2022/11/26 00:02:44;;;;;;;20.83;12.50;;;;;;;4.68;93.75;95111.56;5032409;28;20218;-85
2022/11/26 00:05:13;;;;;;;16.13;9.10;;;;;;;4.58;94.91;95106.66;5032896;28;20188;-77
2022/11/26 00:07:42;;;;;;;15.27;8.23;;;;;;;4.77;94.31;95107.97;5032159;28;20234;-86
2022/11/26 00:10:18;;;;;;;15.40;9.30;;;;;;;4.77;95.39;95120.84;5031843;28;20226;-85
2022/11/26 00:12:49;;;;;;;17.43;9.43;;;;;;;4.75;94.93;95110.72;5033132;28;20241;-87
2022/11/26 00:15:19;;;;;;;13.17;8.60;;;;;;;4.59;95.96;95098.75;5034006;28;20214;-88
2022/11/26 00:17:46;;;;;;;12.47;7.90;;;;;;;4.63;96.94;95108.69;5031344;28;20598;-87
2022/11/26 00:20:13;;;;;;;12.03;7.83;;;;;;;4.50;98.51;95097.19;5031654;28;20268;-86
2022/11/26 00:22:43;;;;;;;14.33;7.47;;;;;;;4.60;98.82;95102.13;5034022;28;20568;-85
2022/11/26 00:25:18;;;;;;;14.23;7.53;;;;;;;4.65;99.28;95097.25;5031361;28;20899;-85
2022/11/26 00:27:46;;;;;;;14.53;7.50;;;;;;;4.74;99.15;95103.97;5031314;28;20206;-87
2022/11/26 00:30:19;;;;;;;12.83;7.70;;;;;;;4.76;99.72;95108.97;5033746;28;20208;-84
2022/11/26 00:32:46;;;;;;;12.53;7.73;;;;;;;4.75;99.17;95102.19;5031093;28;20266;-84
2022/11/26 00:35:14;;;;;;;13.30;8.50;;;;;;;4.75;98.48;95095.28;5033907;28;20232;-84
2022/11/26 00:37:44;;;;;;;12.27;8.70;;;;;;;4.83;98.04;95102.13;5035908;28;20261;-79
2022/11/26 00:40:23;;;;;;;15.77;9.17;;;;;;;4.82;97.89;95113.44;5041381;28;20199;-86
2022/11/26 00:42:51;;;;;;;13.50;8.67;;;;;;;4.89;96.98;95122.06;5035060;28;20199;-85
2022/11/26 00:45:21;;;;;;;14.10;9.07;;;;;;;4.91;97.22;95115.75;5034352;28;20226;-84
2022/11/26 00:47:48;;;;;;;14.50;9.80;;;;;;;4.87;97.57;95124.81;5033658;28;20210;-82
2022/11/26 00:50:17;;;;;;;16.87;10.07;;;;;;;4.72;96.88;95118.78;5042101;28;20200;-78
2022/11/26 00:52:45;;;;;;;16.37;10.23;;;;;;;4.70;97.65;95130.22;5034271;28;20204;-78
2022/11/26 00:55:23;;;;;;;18.20;10.67;;;;;;;4.56;97.55;95129.97;5035458;28;20221;-79
2022/11/26 00:57:52;;;;;;;18.47;11.37;;;;;;;4.44;97.75;95123.59;5033617;28;20199;-78
2022/11/26 01:00:21;;;;;;;17.53;9.97;;;;;;;4.37;98.29;95132.97;5036910;28;20214;-79
2022/11/26 01:02:48;;;;;;;14.27;8.90;;;;;;;4.14;98.88;95129.53;5038748;28;20207;-85
2022/11/26 01:05:16;;;;;;;12.60;8.33;;;;;;;3.84;98.82;95132.81;5038403;28;20736;-83
2022/11/26 01:07:43;;;;;;;15.07;8.67;;;;;;;3.52;100.00;95128.56;5029775;28;21593;-84
2022/11/26 01:10:17;;;;;;;16.90;8.70;;;;;;;3.52;100.00;95131.13;5033393;28;20682;-81
2022/11/26 01:12:44;;;;;;;12.40;7.93;;;;;;;3.51;100.00;95134.69;5029551;28;20324;-81
2022/11/26 01:15:13;;;;;;;24.57;10.67;;;;;;;3.62;100.00;95139.47;5032008;28;20222;-84
2022/11/26 01:17:40;;;;;;;42.03;17.57;;;;;;;3.66;100.00;95145.91;5031978;28;20201;-83
2022/11/26 01:20:20;;;;;;;42.17;16.67;;;;;;;3.80;100.00;95162.41;5029832;28;20198;-83
2022/11/26 01:22:47;;;;;;;26.93;13.73;;;;;;;3.61;100.00;95157.63;5036046;28;21070;-83
2022/11/26 01:25:14;;;;;;;20.57;11.10;;;;;;;3.48;100.00;95152.19;5031754;28;20213;-84
2022/11/26 01:27:41;;;;;;;21.70;11.90;;;;;;;3.48;100.00;95144.47;5032183;28;20202;-84
2022/11/26 01:30:16;;;;;;;20.10;11.00;;;;;;;3.49;100.00;95136.63;5030180;28;20210;-85
2022/11/26 01:32:43;;;;;;;15.43;9.17;;;;;;;3.62;100.00;95154.88;5030991;28;20281;-84
2022/11/26 01:35:11;;;;;;;14.40;8.20;;;;;;;3.63;100.00;95158.28;5032720;28;20236;-84
2022/11/26 01:37:37;;;;;;;21.17;8.40;;;;;;;3.55;100.00;95159.06;5030275;28;20594;-83
2022/11/26 01:40:23;;;;;;;11.93;7.90;;;;;;;3.64;100.00;95155.53;5030213;28;20202;-83
2022/11/26 01:42:53;;;;;;;12.63;7.67;;;;;;;3.57;100.00;95159.72;5030498;28;20833;-84
2022/11/26 01:45:23;;;;;;;12.00;7.80;;;;;;;3.36;100.00;95154.28;5030608;28;20203;-84
2022/11/26 01:47:49;;;;;;;12.43;7.20;;;;;;;3.11;100.00;95145.78;5030925;28;20217;-84
2022/11/26 01:50:52;;;;;;;13.13;7.40;;;;;;;3.16;100.00;95147.84;5030613;28;20206;-81
2022/11/26 01:53:29;;;;;;;10.63;7.10;;;;;;;3.28;100.00;95152.53;5031286;28;20290;-84
2022/11/26 01:56:00;;;;;;;9.57;6.80;;;;;;;3.39;100.00;95151.38;5027366;28;20233;-83
2022/11/26 01:58:31;;;;;;;11.00;7.27;;;;;;;3.45;100.00;95153.31;5030701;28;20324;-83
2022/11/26 02:01:00;;;;;;;10.80;7.10;;;;;;;3.53;100.00;95149.91;5040645;28;20198;-84
2022/11/26 02:03:29;;;;;;;10.20;6.70;;;;;;;3.55;100.00;95153.91;5036325;28;20210;-84
2022/11/26 02:06:01;;;;;;;14.90;7.03;;;;;;;3.58;100.00;95142.53;5027656;28;20221;-84
2022/11/26 02:08:31;;;;;;;11.80;7.03;;;;;;;3.70;100.00;95152.31;5035967;28;20190;-83
2022/11/26 02:10:57;;;;;;;15.77;8.33;;;;;;;3.73;100.00;95141.69;5029809;28;20203;-83
2022/11/26 02:13:25;;;;;;;15.90;8.70;;;;;;;3.84;100.00;95148.25;5039958;28;20211;-83
2022/11/26 02:15:59;;;;;;;16.23;8.27;;;;;;;3.79;100.00;95140.22;5035079;28;20218;-80
2022/11/26 02:18:32;;;;;;;12.27;8.17;;;;;;;3.89;100.00;95156.28;5032476;28;20206;-78
2022/11/26 02:21:05;;;;;;;15.00;8.97;;;;;;;3.91;100.00;95156.91;5032438;28;20191;-84
2022/11/26 02:23:58;;;;;;;16.80;9.20;;;;;;;3.94;100.00;95154.03;5033486;28;20203;-81
2022/11/26 02:27:10;;;;;;;16.60;9.13;;;;;;;3.91;100.00;95149.22;5026733;28;20292;-84
2022/11/26 02:30:05;;;;;;;16.87;9.60;;;;;;;3.78;100.00;95139.44;4968141;28;20213;-83
2022/11/26 02:32:41;;;;;;;18.63;9.93;;;;;;;3.81;100.00;95144.25;5021551;28;20226;-83
2022/11/26 02:35:14;;;;;;;17.13;10.20;;;;;;;3.83;100.00;95137.19;5033107;28;20249;-82
2022/11/26 02:37:47;;;;;;;18.13;10.40;;;;;;;3.91;100.00;95144.06;5037560;28;20689;-81
2022/11/26 02:40:14;;;;;;;17.93;9.73;;;;;;;3.94;100.00;95134.25;5032345;28;20269;-81
2022/11/26 02:42:41;;;;;;;17.00;10.13;;;;;;;3.89;100.00;95135.72;5030246;28;20264;-81
2022/11/26 02:45:13;;;;;;;17.40;10.17;;;;;;;3.89;100.00;95140.88;5037132;28;20649;-81
2022/11/26 02:47:43;;;;;;;18.20;10.63;;;;;;;3.93;100.00;95144.69;5036843;28;20313;-81
2022/11/26 02:50:12;;;;;;;19.00;10.73;;;;;;;3.71;100.00;95142.81;5033690;28;20256;-82
2022/11/26 02:52:41;;;;;;;19.77;11.20;;;;;;;3.42;100.00;95143.34;5033938;28;20202;-82
2022/11/26 02:55:12;;;;;;;20.53;11.93;;;;;;;3.14;100.00;95139.50;5029290;28;20584;-81
2022/11/26 02:57:46;;;;;;;18.43;11.80;;;;;;;3.24;100.00;95142.72;5029505;28;20198;-82
2022/11/26 03:00:15;;;;;;;20.60;11.87;;;;;;;3.33;100.00;95140.00;5029194;28;20369;-82
2022/11/26 03:02:47;;;;;;;20.73;11.60;;;;;;;3.43;100.00;95140.59;5029293;28;21021;-81
2022/11/26 03:05:17;;;;;;;19.17;11.90;;;;;;;3.57;100.00;95158.91;5034459;28;20203;-81
2022/11/26 03:07:47;;;;;;;18.43;11.70;;;;;;;3.65;100.00;95164.84;5032946;28;20234;-82
2022/11/26 03:10:14;;;;;;;17.87;11.33;;;;;;;3.73;100.00;95166.59;5034352;28;20199;-83
2022/11/26 03:12:41;;;;;;;20.10;11.87;;;;;;;3.68;100.00;95164.53;5038656;28;20195;-82
2022/11/26 03:15:08;;;;;;;19.57;11.20;;;;;;;3.76;100.00;95159.34;5032281;28;20214;-83
2022/11/26 03:17:36;;;;;;;18.40;11.30;;;;;;;3.77;100.00;95163.53;5033421;28;20207;-82
2022/11/26 03:20:04;;;;;;;19.67;11.47;;;;;;;3.75;100.00;95170.59;5046826;28;20202;-84
2022/11/26 03:22:30;;;;;;;18.73;11.77;;;;;;;3.69;100.00;95173.03;5032952;28;20199;-83
2022/11/26 03:24:57;;;;;;;16.87;10.77;;;;;;;3.48;100.00;95170.97;5033134;28;20199;-78
2022/11/26 03:27:24;;;;;;;18.83;11.37;;;;;;;3.32;100.00;95169.19;5041092;28;20199;-78
2022/11/26 03:29:51;;;;;;;16.97;10.70;;;;;;;3.50;100.00;95188.78;5035605;28;20205;-83
2022/11/26 03:32:18;;;;;;;19.47;11.47;;;;;;;3.54;100.00;95192.63;5041148;28;20709;-82
2022/11/26 03:34:46;;;;;;;21.07;11.07;;;;;;;3.53;100.00;95194.41;5032246;28;20230;-78
2022/11/26 03:37:13;;;;;;;17.27;10.57;;;;;;;3.46;100.00;95198.59;5038442;28;20734;-79
2022/11/26 03:39:39;;;;;;;17.73;10.67;;;;;;;3.39;100.00;95200.19;5032852;28;20609;-77
2022/11/26 03:42:06;;;;;;;13.90;9.83;;;;;;;3.07;100.00;95195.00;5037056;28;20669;-79
2022/11/26 03:44:33;;;;;;;18.37;9.97;;;;;;;3.02;100.00;95212.66;5036687;28;20194;-78
2022/11/26 03:47:00;;;;;;;20.97;10.87;;;;;;;2.93;100.00;95203.34;5035940;28;20234;-78
2022/11/26 03:49:27;;;;;;;18.30;11.63;;;;;;;2.80;100.00;95207.16;5032182;28;20195;-77
2022/11/26 03:51:55;;;;;;;17.07;10.70;;;;;;;2.72;100.00;95214.03;5037265;28;20190;-77
2022/11/26 03:54:22;;;;;;;19.93;11.53;;;;;;;2.60;100.00;95217.84;5036177;28;20632;-78
2022/11/26 03:56:49;;;;;;;21.73;12.17;;;;;;;2.45;100.00;95215.09;5033335;28;20206;-78
2022/11/26 03:59:15;;;;;;;19.43;12.07;;;;;;;2.38;100.00;95215.84;5036059;28;20216;-77
2022/11/26 04:01:42;;;;;;;23.30;13.53;;;;;;;2.29;100.00;95222.69;5035916;28;20787;-77
2022/11/26 04:04:09;;;;;;;22.40;12.67;;;;;;;2.23;100.00;95224.09;5033870;28;20206;-82
2022/11/26 04:06:36;;;;;;;20.67;13.27;;;;;;;2.17;100.00;95229.84;5031215;28;20202;-82
2022/11/26 04:09:04;;;;;;;22.33;13.80;;;;;;;2.21;100.00;95223.47;5031372;28;20215;-82
2022/11/26 04:11:31;;;;;;;22.90;14.23;;;;;;;2.06;100.00;95217.28;5038653;28;20222;-82
2022/11/26 04:13:58;;;;;;;30.93;14.87;;;;;;;2.06;100.00;95231.84;5033604;28;20206;-77
2022/11/26 04:16:24;;;;;;;25.57;14.67;;;;;;;2.00;100.00;95235.03;5034394;28;20229;-77
2022/11/26 04:18:51;;;;;;;27.50;15.97;;;;;;;2.04;100.00;95241.47;5036078;28;20217;-77
2022/11/26 04:21:18;;;;;;;27.07;15.30;;;;;;;2.15;100.00;95239.44;5035353;28;20293;-77
2022/11/26 04:23:45;;;;;;;26.57;14.77;;;;;;;2.06;100.00;95242.09;5035016;28;20240;-77
2022/11/26 04:26:13;;;;;;;23.23;13.50;;;;;;;1.96;100.00;95241.41;5031812;28;20205;-77
2022/11/26 04:28:40;;;;;;;24.80;14.10;;;;;;;2.00;100.00;95240.94;5033396;28;20204;-84
2022/11/26 04:31:07;;;;;;;23.00;14.03;;;;;;;2.09;100.00;95240.06;5035208;28;20210;-82
2022/11/26 04:33:34;;;;;;;25.17;15.10;;;;;;;2.19;100.00;95251.00;5031488;28;20210;-77
2022/11/26 04:36:00;;;;;;;28.70;16.40;;;;;;;2.33;100.00;95256.53;5034224;28;20672;-77
2022/11/26 04:38:27;;;;;;;29.63;17.73;;;;;;;2.43;100.00;95265.69;5030273;28;20202;-84
2022/11/26 04:40:55;;;;;;;30.17;18.43;;;;;;;2.37;100.00;95262.97;5030758;28;20679;-84
2022/11/26 04:43:23;;;;;;;33.63;18.73;;;;;;;2.23;100.00;95275.38;5030315;28;20218;-82
2022/11/26 04:45:50;;;;;;;32.43;18.20;;;;;;;2.10;100.00;95266.50;5034690;28;20202;-81
2022/11/26 04:48:17;;;;;;;29.60;18.17;;;;;;;2.06;100.00;95278.78;5038852;28;20210;-82
2022/11/26 04:50:44;;;;;;;31.87;18.30;;;;;;;2.09;100.00;95270.00;5037870;28;20206;-78
2022/11/26 04:53:11;;;;;;;32.73;19.60;;;;;;;2.12;100.00;95278.19;5035197;28;20203;-77
2022/11/26 04:55:38;;;;;;;36.20;20.90;;;;;;;2.19;100.00;95281.75;5034287;28;20222;-78
2022/11/26 04:58:04;;;;;;;36.27;22.57;;;;;;;2.21;100.00;95279.88;5032330;28;20221;-82
2022/11/26 05:00:33;;;;;;;38.53;22.40;;;;;;;2.10;100.00;95287.81;5033597;28;20201;-78
2022/11/26 05:02:59;;;;;;;37.37;20.10;;;;;;;2.02;100.00;95290.28;5031052;28;20225;-79
2022/11/26 05:05:26;;;;;;;29.40;18.47;;;;;;;1.88;100.00;95282.34;5035341;28;20206;-77
2022/11/26 05:07:53;;;;;;;28.20;17.00;;;;;;;1.76;100.00;95289.47;5030337;28;20216;-78
2022/11/26 05:10:20;;;;;;;28.23;16.17;;;;;;;1.60;100.00;95279.91;5032466;28;20202;-78
2022/11/26 05:12:47;;;;;;;22.37;14.70;;;;;;;1.79;100.00;95290.94;5032996;28;20206;-84
2022/11/26 05:15:13;;;;;;;25.97;14.97;;;;;;;1.81;100.00;95289.03;5030239;28;20230;-84
2022/11/26 05:17:42;;;;;;;25.50;14.80;;;;;;;1.84;100.00;95296.41;5030281;28;20213;-83
2022/11/26 05:20:09;;;;;;;22.23;14.47;;;;;;;1.78;100.00;95300.38;5032223;28;20210;-83
2022/11/26 05:22:36;;;;;;;26.03;14.97;;;;;;;1.71;100.00;95301.91;5032959;28;20530;-83
2022/11/26 05:25:04;;;;;;;24.23;14.33;;;;;;;1.81;100.00;95306.97;5029788;28;20212;-83
2022/11/26 05:27:30;;;;;;;23.10;14.37;;;;;;;1.90;100.00;95311.19;5033495;28;20212;-83
2022/11/26 05:29:57;;;;;;;27.30;15.43;;;;;;;1.97;100.00;95307.88;5031708;28;20262;-83
2022/11/26 05:32:24;;;;;;;26.30;15.60;;;;;;;2.03;100.00;95309.03;5033272;28;20229;-83
2022/11/26 05:34:52;;;;;;;30.30;18.33;;;;;;;2.09;100.00;95316.94;5027699;28;20264;-84
2022/11/26 05:37:19;;;;;;;31.17;18.53;;;;;;;2.11;100.00;95317.59;5030244;28;20201;-83
2022/11/26 05:39:46;;;;;;;37.87;18.93;;;;;;;2.20;100.00;95321.00;5029777;28;20237;-83
2022/11/26 05:42:14;;;;;;;33.67;18.93;;;;;;;2.14;100.00;95324.19;5030348;28;20214;-83
2022/11/26 05:44:40;;;;;;;28.67;16.90;;;;;;;2.16;100.00;95324.84;5029694;28;20227;-84
2022/11/26 05:47:07;;;;;;;33.87;17.63;;;;;;;2.20;100.00;95326.94;5031966;28;20671;-82
2022/11/26 05:49:34;;;;;;;31.67;17.27;;;;;;;2.18;100.00;95328.88;5029426;28;20218;-84
2022/11/26 05:52:02;;;;;;;34.50;18.67;;;;;;;2.14;100.00;95331.88;5031311;28;20211;-83
2022/11/26 05:54:29;;;;;;;38.30;21.93;;;;;;;2.16;100.00;95330.78;5029706;28;20212;-84
2022/11/26 05:56:56;;;;;;;43.60;23.90;;;;;;;2.10;100.00;95333.94;5030375;28;20245;-79
2022/11/26 05:59:23;;;;;;;43.30;21.03;;;;;;;2.04;100.00;95329.41;5035581;28;20202;-79
2022/11/26 06:01:50;;;;;;;33.80;19.37;;;;;;;2.11;100.00;95334.72;5035725;28;20205;-78
2022/11/26 06:04:17;;;;;;;32.93;19.80;;;;;;;2.14;100.00;95339.56;5039319;28;20203;-79
2022/11/26 06:06:44;;;;;;;38.77;22.17;;;;;;;2.10;100.00;95328.81;5033970;28;20229;-79
2022/11/26 06:09:13;;;;;;;45.13;22.40;;;;;;;2.06;100.00;95330.06;5032703;28;20197;-80
2022/11/26 06:11:40;;;;;;;39.07;20.93;;;;;;;2.12;100.00;95337.16;5031177;28;20246;-79
2022/11/26 06:14:08;;;;;;;47.63;27.57;;;;;;;2.21;100.00;95338.00;5032784;28;20202;-84
2022/11/26 06:16:34;;;;;;;53.90;33.30;;;;;;;2.18;100.00;95339.13;5032391;28;20221;-83
2022/11/26 06:19:01;;;;;;;69.57;38.87;;;;;;;2.17;100.00;95340.06;5031813;28;20275;-83
2022/11/26 06:21:28;;;;;;;68.97;38.90;;;;;;;2.12;100.00;95344.84;5029510;28;20216;-84
2022/11/26 06:23:55;;;;;;;72.67;38.47;;;;;;;2.11;100.00;95344.97;5033899;28;20733;-83
2022/11/26 06:26:23;;;;;;;66.50;36.73;;;;;;;2.17;100.00;95345.19;5030444;28;20202;-82
2022/11/26 06:28:50;;;;;;;76.80;36.63;;;;;;;2.16;100.00;95348.72;5026306;28;20214;-84
2022/11/26 06:31:16;;;;;;;65.73;31.87;;;;;;;2.01;100.00;95328.91;5033115;28;20613;-78
2022/11/26 06:33:43;;;;;;;65.03;33.93;;;;;;;2.13;100.00;95333.66;5033002;28;20198;-79
2022/11/26 06:36:11;;;;;;;60.40;33.90;;;;;;;2.24;100.00;95346.22;5031462;28;20217;-78
2022/11/26 06:38:38;;;;;;;55.90;31.37;;;;;;;2.19;100.00;95342.50;5031454;28;20734;-77
2022/11/26 06:41:07;;;;;;;60.43;31.87;;;;;;;2.17;100.00;95354.63;5028475;28;20210;-78
2022/11/26 06:43:36;;;;;;;53.17;30.23;;;;;;;2.19;100.00;95353.53;5028374;28;20210;-80
2022/11/26 06:46:06;;;;;;;55.50;30.30;;;;;;;2.28;100.00;95354.38;5037103;28;20218;-82
2022/11/26 06:48:34;;;;;;;48.47;27.23;;;;;;;2.19;100.00;95327.91;5039899;28;20270;-79
2022/11/26 06:51:03;;;;;;;44.57;25.43;;;;;;;2.32;100.00;95353.16;5037211;28;20198;-78
2022/11/26 06:53:31;;;;;;;41.43;21.77;;;;;;;2.33;100.00;95359.09;5033386;28;20657;-78
2022/11/26 06:56:00;;;;;;;38.27;21.30;;;;;;;2.40;100.00;95357.50;5040528;28;20230;-79
2022/11/26 06:58:27;;;;;;;37.87;20.97;;;;;;;2.52;100.00;95348.63;5039449;28;20214;-79
2022/11/26 07:00:56;;;;;;;37.00;22.33;;;;;;;2.64;100.00;95358.47;5038452;28;20201;-79
2022/11/26 07:03:23;;;;;;;43.80;23.53;;;;;;;2.83;100.00;95367.72;5038632;28;20230;-80
2022/11/26 07:05:50;;;;;;;42.23;24.43;;;;;;;2.99;100.00;95361.88;5040760;28;20194;-78
2022/11/26 07:08:16;;;;;;;38.83;24.13;;;;;;;3.12;100.00;95368.16;5036068;28;20203;-80
2022/11/26 07:10:44;;;;;;;45.33;24.27;;;;;;;3.24;100.00;95366.94;5038181;28;20207;-80
2022/11/26 07:13:11;;;;;;;44.23;24.53;;;;;;;3.36;100.00;95364.88;5036720;28;20207;-79
2022/11/26 07:15:38;;;;;;;41.53;24.60;;;;;;;3.53;100.00;95370.88;5037824;28;20727;-78
2022/11/26 07:18:06;;;;;;;38.53;23.93;;;;;;;3.63;100.00;95372.34;5032806;28;20221;-79
2022/11/26 07:20:33;;;;;;;45.30;23.17;;;;;;;3.73;100.00;95365.28;5036537;28;20210;-79
2022/11/26 07:23:01;;;;;;;40.33;23.30;;;;;;;3.80;100.00;95368.03;5036087;28;20198;-79
2022/11/26 07:25:28;;;;;;;36.27;21.50;;;;;;;3.81;100.00;95360.16;5039500;28;20281;-82
2022/11/26 07:27:55;;;;;;;37.20;21.20;;;;;;;3.93;100.00;95363.22;5038059;28;20202;-82
2022/11/26 07:30:22;;;;;;;31.83;20.00;;;;;;;3.89;100.00;95351.66;5034170;28;20198;-80
2022/11/26 07:32:49;;;;;;;35.90;19.40;;;;;;;4.06;100.00;95367.91;5032209;28;20242;-81
2022/11/26 07:35:17;;;;;;;30.80;18.57;;;;;;;4.11;100.00;95368.22;5034733;28;20207;-80
2022/11/26 07:37:44;;;;;;;36.40;18.70;;;;;;;4.17;100.00;95365.00;5033962;28;20225;-79
2022/11/26 07:40:12;;;;;;;36.03;19.57;;;;;;;4.17;100.00;95365.00;5038848;28;20293;-79
2022/11/26 07:42:38;;;;;;;35.23;20.17;;;;;;;4.26;100.00;95376.91;5037599;28;20202;-80
2022/11/26 07:45:06;;;;;;;32.33;20.70;;;;;;;4.27;100.00;95381.88;5037665;28;20203;-82
2022/11/26 07:47:33;;;;;;;35.17;20.03;;;;;;;4.31;100.00;95390.06;5033636;28;20202;-82
2022/11/26 07:50:00;;;;;;;35.57;20.50;;;;;;;4.32;100.00;95382.22;5033753;28;20227;-81
2022/11/26 07:52:28;;;;;;;35.97;20.80;;;;;;;4.32;100.00;95382.22;5032740;28;20207;-84
2022/11/26 07:54:55;;;;;;;32.97;19.07;;;;;;;4.29;100.00;95395.41;5030336;28;20203;-82
2022/11/26 07:57:22;;;;;;;32.90;19.90;;;;;;;4.40;100.00;95396.84;5030123;28;20227;-81
2022/11/26 07:59:49;;;;;;;32.37;18.43;;;;;;;4.48;100.00;95391.69;5031248;28;20650;-82
2022/11/26 08:02:17;;;;;;;30.53;17.80;;;;;;;4.44;100.00;95390.41;5038515;28;20208;-81
2022/11/26 08:04:44;;;;;;;30.50;17.33;;;;;;;4.48;100.00;95400.22;5040738;28;20206;-80
2022/11/26 08:07:10;;;;;;;27.90;17.30;;;;;;;4.53;100.00;95400.50;5037737;28;20194;-80
2022/11/26 08:09:39;;;;;;;29.90;17.50;;;;;;;4.64;100.00;95399.41;5038329;28;20238;-81
2022/11/26 08:12:06;;;;;;;30.37;17.13;;;;;;;4.66;100.00;95397.47;5031065;28;20644;-80
2022/11/26 08:14:33;;;;;;;28.57;17.37;;;;;;;4.72;100.00;95404.53;5034003;28;20219;-82
2022/11/26 08:17:00;;;;;;;32.10;17.73;;;;;;;4.72;100.00;95398.56;5035155;28;20659;-82
2022/11/26 08:19:27;;;;;;;35.30;19.13;;;;;;;4.71;100.00;95400.34;5033912;28;20405;-83
2022/11/26 08:21:54;;;;;;;31.13;18.77;;;;;;;4.78;100.00;95403.06;5034630;28;20206;-81
2022/11/26 08:24:22;;;;;;;31.57;18.50;;;;;;;4.76;100.00;95398.06;5031269;28;20234;-80
2022/11/26 08:26:50;;;;;;;30.90;18.10;;;;;;;4.80;100.00;95404.50;5033350;28;20277;-81
2022/11/26 08:29:17;;;;;;;23.73;15.63;;;;;;;4.90;100.00;95407.72;5030847;28;20207;-82
2022/11/26 08:31:44;;;;;;;26.67;16.70;;;;;;;5.01;100.00;95401.41;5030386;28;20247;-83
2022/11/26 08:34:13;;;;;;;30.37;15.93;;;;;;;5.11;100.00;95399.44;5029900;28;20209;-82
2022/11/26 08:36:40;;;;;;;26.00;15.73;;;;;;;5.05;100.00;95402.69;5036422;28;20253;-81
2022/11/26 08:39:07;;;;;;;27.87;14.13;;;;;;;4.95;100.00;95404.63;5035354;28;20202;-82
2022/11/26 08:41:33;;;;;;;24.50;14.83;;;;;;;4.92;100.00;95410.13;5032234;28;20203;-81
2022/11/26 08:44:01;;;;;;;20.53;12.43;;;;;;;4.95;100.00;95395.16;5034399;28;20466;-80
2022/11/26 08:46:28;;;;;;;17.70;11.37;;;;;;;5.04;100.00;95412.19;5044332;28;20191;-81
2022/11/26 08:48:56;;;;;;;18.43;11.53;;;;;;;5.15;100.00;95408.44;5033305;28;20674;-81
2022/11/26 08:51:24;;;;;;;19.87;12.03;;;;;;;5.10;100.00;95403.81;5034304;28;20664;-81
2022/11/26 08:53:51;;;;;;;19.27;12.80;;;;;;;5.06;100.00;95417.16;5031381;28;20233;-80
2022/11/26 08:56:18;;;;;;;18.87;12.10;;;;;;;4.95;100.00;95415.75;5034653;28;20224;-81
2022/11/26 08:58:45;;;;;;;18.20;11.20;;;;;;;4.83;100.00;95413.66;5033312;28;20207;-79
2022/11/26 09:01:15;;;;;;;17.40;10.63;;;;;;;4.68;100.00;95415.28;5032231;28;20287;-79
2022/11/26 09:03:42;;;;;;;20.50;10.90;;;;;;;4.76;100.00;95416.09;5036474;28;20219;-80
2022/11/26 09:06:09;;;;;;;17.03;10.57;;;;;;;4.86;100.00;95414.16;5035880;28;20198;-80
2022/11/26 09:09:11;;;;;;;15.83;11.53;;;;;;;4.77;100.00;95415.13;5042868;28;20195;-79
2022/11/26 09:11:25;;;;;;;18.03;10.87;;;;;;;4.75;100.00;95416.25;5032702;28;20749;-80
2022/11/26 09:13:53;;;;;;;28.30;15.83;;;;;;;4.81;100.00;95419.00;5034268;28;20222;-79
2022/11/26 09:16:21;;;;;;;16.43;10.97;;;;;;;5.01;100.00;95417.66;5033731;28;20309;-79
2022/11/26 09:18:48;;;;;;;16.40;10.70;;;;;;;5.11;100.00;95422.63;5034785;28;20204;-77
2022/11/26 09:21:15;;;;;;;15.57;10.50;;;;;;;5.22;99.56;95411.16;5034593;28;20264;-79
2022/11/26 09:23:42;;;;;;;17.10;10.30;;;;;;;5.52;99.53;95415.56;5037455;28;20202;-79
2022/11/26 09:26:11;;;;;;;17.77;11.40;;;;;;;5.69;97.65;95407.56;5035824;28;20209;-79
2022/11/26 09:28:39;;;;;;;23.53;13.77;;;;;;;5.71;96.72;95415.94;5034492;28;20290;-80
2022/11/26 09:31:06;;;;;;;22.23;15.10;;;;;;;5.82;97.54;95416.53;5034036;28;21184;-79
2022/11/26 09:33:34;;;;;;;21.20;13.40;;;;;;;5.91;96.70;95415.56;5039097;28;20204;-80
2022/11/26 09:36:05;;;;;;;22.60;13.33;;;;;;;6.05;95.26;95407.88;5032378;28;20278;-80
2022/11/26 09:38:33;;;;;;;20.07;13.17;;;;;;;6.24;95.66;95406.63;5032819;28;20195;-79
2022/11/26 09:41:07;;;;;;;22.17;13.30;;;;;;;6.44;95.14;95402.59;5038889;28;20196;-80
2022/11/26 09:43:43;;;;;;;26.23;15.33;;;;;;;6.67;93.44;95399.97;5033142;28;20591;-79
2022/11/26 09:46:14;;;;;;;27.47;17.30;;;;;;;7.20;92.48;95417.88;5038728;28;20205;-80
2022/11/26 09:48:46;;;;;;;29.90;16.93;;;;;;;8.17;88.27;95405.47;5029766;28;20285;-79
2022/11/26 09:51:16;;;;;;;23.43;16.03;;;;;;;9.33;83.49;95410.97;5037983;28;20198;-80
2022/11/26 09:53:48;;;;;;;26.93;15.23;;;;;;;10.63;79.18;95409.81;5042820;28;20201;-79
2022/11/26 09:56:20;;;;;;;22.47;14.67;;;;;;;11.32;75.00;95410.97;5034859;28;20782;-79
2022/11/26 09:58:51;;;;;;;23.17;15.47;;;;;;;11.95;72.43;95408.59;5033795;28;20206;-79
2022/11/26 10:01:21;;;;;;;16.57;11.73;;;;;;;12.43;69.82;95362.03;5035325;28;20194;-79
2022/11/26 10:03:51;;;;;;;19.03;11.93;;;;;;;13.11;66.34;95404.63;5033752;28;20758;-80
2022/11/26 10:06:30;;;;;;;15.10;10.47;;;;;;;13.47;65.00;95390.81;5031611;28;20207;-80
2022/11/26 10:09:08;;;;;;;15.90;11.30;;;;;;;14.23;63.14;95396.31;5028202;28;20286;-79
2022/11/26 10:11:42;;;;;;;19.13;11.67;;;;;;;14.36;61.98;95395.38;5030022;28;20201;-79
2022/11/26 10:14:22;;;;;;;18.13;12.87;;;;;;;14.74;61.60;95394.03;5029297;28;20189;-79
2022/11/26 10:16:59;;;;;;;17.00;12.47;;;;;;;15.90;58.94;95399.22;5029632;28;20224;-79
2022/11/26 10:19:43;;;;;;;15.93;10.83;;;;;;;16.57;56.58;95401.25;5031112;28;20669;-79
2022/11/26 10:22:23;;;;;;;15.67;10.20;;;;;;;17.29;53.13;95400.31;5035218;28;20201;-80
2022/11/26 10:24:51;;;;;;;14.73;11.03;;;;;;;17.72;51.69;95404.88;5034134;28;20207;-80
2022/11/26 10:27:19;;;;;;;16.53;11.70;;;;;;;17.94;48.95;95397.81;5037322;28;20668;-80
2022/11/26 10:29:50;;;;;;;14.47;10.77;;;;;;;17.65;48.94;95387.69;5035341;28;20333;-80
2022/11/26 10:32:25;;;;;;;16.30;11.47;;;;;;;17.81;48.48;95390.28;5034459;28;20222;-80
2022/11/26 10:34:56;;;;;;;14.83;11.20;;;;;;;18.17;47.83;95393.31;5031637;28;20197;-79
2022/11/26 10:37:38;;;;;;;13.07;10.17;;;;;;;18.18;47.34;95389.66;5030740;28;20206;-81
2022/11/26 10:40:18;;;;;;;12.20;9.93;;;;;;;18.65;45.77;95388.06;5032363;28;20201;-82
2022/11/26 10:43:01;;;;;;;15.30;10.17;;;;;;;18.53;45.49;95397.94;5035407;28;20799;-79
2022/11/26 10:45:36;;;;;;;13.40;9.93;;;;;;;18.91;44.19;95392.50;5040470;28;20201;-79
2022/11/26 10:48:20;;;;;;;16.57;10.20;;;;;;;19.55;42.77;95401.16;5036120;28;20252;-79
2022/11/26 10:50:59;;;;;;;15.80;10.80;;;;;;;20.10;41.32;95407.75;5031960;28;20222;-78
2022/11/26 10:53:28;;;;;;;10.03;8.53;;;;;;;20.43;39.95;95401.28;5037123;28;20207;-79
2022/11/26 10:55:58;;;;;;;12.73;8.73;;;;;;;20.41;39.50;95409.47;5033290;28;20195;-79
2022/11/26 10:58:27;;;;;;;11.60;8.53;;;;;;;19.72;40.01;95404.41;5030367;28;20221;-77
2022/11/26 11:01:01;;;;;;;14.27;8.67;;;;;;;19.49;40.54;95398.72;5032181;28;20203;-78
2022/11/26 11:03:30;;;;;;;13.13;9.73;;;;;;;19.69;40.25;95401.47;5035410;28;20194;-81
2022/11/26 11:06:24;;;;;;;13.03;9.93;;;;;;;19.74;39.76;95398.88;5031425;28;20203;-83
2022/11/26 11:08:52;;;;;;;11.67;8.63;;;;;;;19.49;39.87;95404.00;5039432;28;20210;-79
2022/11/26 11:11:20;;;;;;;11.20;8.50;;;;;;;19.40;39.77;95408.16;5042607;28;20615;-78
2022/11/26 11:13:47;;;;;;;10.97;8.00;;;;;;;19.32;40.17;95412.03;5034889;28;20207;-79
2022/11/26 11:16:19;;;;;;;8.80;7.43;;;;;;;19.57;39.37;95416.72;5039959;28;20619;-79
2022/11/26 11:18:53;;;;;;;10.57;7.50;;;;;;;19.88;40.18;95402.66;5031496;28;20211;-78
2022/11/26 11:21:24;;;;;;;12.77;7.60;;;;;;;19.52;38.56;95392.94;5036872;28;20205;-79
2022/11/26 11:23:51;;;;;;;13.17;7.73;;;;;;;18.94;39.86;95399.09;5041631;28;20186;-78
2022/11/26 11:26:21;;;;;;;9.83;7.20;;;;;;;19.26;40.37;95398.03;5040582;28;20198;-79
2022/11/26 11:28:50;;;;;;;8.07;6.37;;;;;;;19.61;38.75;95400.13;5038707;28;20206;-79